Time;durP1;ratioP1;P1;durP2;ratioP2;P2;SDS_P1;SDS_P2;PMS_P1;PMS_P2;Temp;Humidity;BMP_temperature;BMP_pressure;BME280_temperature;BME280_humidity;BME280_pressure;Samples;Min_cycle;Max_cycle;Signal;HPM_P1;HPM_P2
2020/12/13 00:06:59;;;;;;;35.38;15.43;;;;;;;1.72;100.00;99827.99;10923741;80;21166;-78
2020/12/13 00:22:03;;;;;;;33.98;13.58;;;;;;;1.78;100.00;99850.45;10936607;80;21542;-78
2020/12/13 00:37:08;;;;;;;39.48;16.82;;;;;;;1.73;100.00;99856.34;10920783;79;21644;-78
2020/12/13 00:52:14;;;;;;;43.63;16.43;;;;;;;1.73;100.00;99856.34;10504917;83;21162;-78
2020/12/13 01:07:19;;;;;;;92.42;27.70;;;;;;;1.72;100.00;99871.48;10878089;81;21108;-78
2020/12/13 01:22:24;;;;;;;94.60;27.67;;;;;;;1.81;100.00;99877.41;10488262;84;21130;-78
2020/12/13 01:37:31;;;;;;;75.65;25.65;;;;;;;1.72;100.00;99864.20;10547960;82;21181;-78
2020/12/13 01:52:42;;;;;;;91.32;28.20;;;;;;;1.76;100.00;99878.14;10880229;80;21337;-78
2020/12/13 02:07:48;;;;;;;47.40;19.70;;;;;;;1.68;100.00;99869.15;10878727;81;21739;-78
2020/12/13 02:23:10;;;;;;;49.63;19.80;;;;;;;1.68;100.00;99869.15;10873928;81;21314;-78
2020/12/13 02:38:16;;;;;;;55.00;21.07;;;;;;;1.78;100.00;99887.95;10865986;81;21141;-78
2020/12/13 02:53:20;;;;;;;82.50;31.73;;;;;;;1.78;100.00;99895.71;10862706;81;21104;-78
2020/12/13 03:08:25;;;;;;;84.20;27.98;;;;;;;1.75;100.00;99896.34;10861200;81;21723;-78
2020/12/13 03:23:29;;;;;;;207.90;54.95;;;;;;;1.76;100.00;99914.35;10465900;84;21273;-78
2020/12/13 03:38:34;;;;;;;143.15;41.58;;;;;;;1.76;100.00;99918.70;10571127;82;21545;-78
2020/12/13 03:53:38;;;;;;;127.00;41.02;;;;;;;1.79;100.00;99919.81;10889783;79;21144;-79
2020/12/13 04:08:43;;;;;;;160.32;84.28;;;;;;;1.81;100.00;99922.69;10870211;81;21175;-78
2020/12/13 04:23:48;;;;;;;194.20;68.52;;;;;;;1.76;100.00;99915.65;10460144;84;21224;-78
2020/12/13 04:38:52;;;;;;;155.70;49.38;;;;;;;1.87;100.00;99926.66;10873916;81;21104;-78
2020/12/13 04:54:05;;;;;;;174.42;60.78;;;;;;;1.89;100.00;99927.42;10880224;79;21331;-78
2020/12/13 05:09:12;;;;;;;96.37;36.77;;;;;;;1.71;100.00;99914.25;10938229;80;21273;-78
2020/12/13 05:24:17;;;;;;;119.25;41.98;;;;;;;1.85;100.00;99953.54;10936244;80;21107;-78
2020/12/13 05:39:23;;;;;;;67.62;28.55;;;;;;;1.91;100.00;99961.78;10947139;80;21104;-78
2020/12/13 05:54:29;;;;;;;64.55;24.37;;;;;;;1.88;100.00;99977.49;10537792;83;21205;-79
2020/12/13 06:09:36;;;;;;;87.42;38.10;;;;;;;1.96;100.00;99971.88;10558972;83;21147;-78
2020/12/13 06:24:41;;;;;;;74.17;26.03;;;;;;;2.09;100.00;99957.31;10926808;80;21143;-78
2020/12/13 06:39:46;;;;;;;70.50;28.73;;;;;;;2.27;100.00;99970.09;10904942;80;21510;-78
2020/12/13 06:54:51;;;;;;;81.40;32.28;;;;;;;2.27;100.00;99976.13;10497371;83;21198;-78
2020/12/13 07:09:57;;;;;;;80.22;32.80;;;;;;;2.25;100.00;99995.26;10848711;81;21151;-78
2020/12/13 07:25:01;;;;;;;154.45;72.30;;;;;;;2.28;100.00;100014.05;10472407;84;21568;-78
2020/12/13 07:40:11;;;;;;;92.00;39.27;;;;;;;2.21;100.00;100028.72;10447293;84;21190;-78
2020/12/13 07:55:16;;;;;;;87.47;45.40;;;;;;;2.32;100.00;100048.33;10865487;80;21218;-78
2020/12/13 08:10:23;;;;;;;125.40;46.53;;;;;;;2.60;100.00;100058.38;10971608;80;21274;-79
2020/12/13 08:25:27;;;;;;;257.63;124.33;;;;;;;2.70;100.00;100075.06;10967184;80;21112;-79
2020/12/13 08:40:38;;;;;;;126.02;40.70;;;;;;;2.71;100.00;100084.50;10977354;80;21139;-79
2020/12/13 08:55:43;;;;;;;266.25;91.20;;;;;;;2.80;100.00;100115.05;10965852;80;21174;-79
2020/12/13 09:10:47;;;;;;;69.05;35.00;;;;;;;2.86;100.00;100109.97;10949047;80;21029;-80
2020/12/13 09:25:53;;;;;;;70.50;37.17;;;;;;;2.88;100.00;100117.20;10519885;83;20988;-80
2020/12/13 09:40:59;;;;;;;63.52;29.18;;;;;;;2.87;100.00;100128.48;10565491;82;21473;-83
2020/12/13 09:56:04;;;;;;;90.17;39.40;;;;;;;2.93;100.00;100131.17;10912753;80;21452;-83
2020/12/13 10:11:11;;;;;;;36.25;19.85;;;;;;;3.04;100.00;100127.50;10546163;83;21232;-84
2020/12/13 10:26:15;;;;;;;75.73;29.80;;;;;;;3.05;100.00;100152.50;10586731;82;21042;-84
2020/12/13 10:41:22;;;;;;;81.82;32.08;;;;;;;3.03;100.00;100147.03;10613686;83;21172;-84
2020/12/13 10:56:27;;;;;;;83.57;41.43;;;;;;;2.95;100.00;100135.34;10593715;83;21069;-84
2020/12/13 11:11:34;;;;;;;63.68;38.70;;;;;;;2.83;100.00;100138.19;10552036;83;21224;-84
2020/12/13 11:26:38;;;;;;;;;;;;;;;2.93;100.00;100137.65;10547726;83;21636;-84
2020/12/13 11:41:42;;;;;;;125.65;69.95;;;;;;;3.09;100.00;100138.87;10562185;83;20215;-84
2020/12/13 11:56:47;;;;;;;78.50;33.63;;;;;;;3.21;100.00;100141.20;10869452;79;21550;-84
2020/12/13 12:11:51;;;;;;;151.53;52.80;;;;;;;3.21;100.00;100141.20;10464510;84;21527;-83
2020/12/13 12:26:55;;;;;;;250.80;77.05;;;;;;;3.29;100.00;100156.68;10874686;79;21115;-84
2020/12/13 12:42:00;;;;;;;268.77;74.32;;;;;;;3.35;100.00;100158.06;10456781;82;21192;-84
2020/12/13 12:57:06;;;;;;;177.10;56.85;;;;;;;3.31;100.00;100155.28;10881170;80;21032;-84
2020/12/13 13:12:10;;;;;;;240.65;63.75;;;;;;;3.25;100.00;100155.20;10952866;80;21537;-83
2020/12/13 13:27:15;;;;;;;211.72;67.58;;;;;;;3.29;100.00;100170.13;10555583;83;21094;-83
2020/12/13 13:42:19;;;;;;;270.75;98.12;;;;;;;3.12;100.00;100165.93;10617245;83;21180;-83
2020/12/13 13:57:27;;;;;;;277.43;93.90;;;;;;;3.10;100.00;100211.83;10652052;82;21084;-84
2020/12/13 14:12:31;;;;;;;226.83;78.73;;;;;;;3.06;100.00;100206.02;10629996;83;21040;-84
2020/12/13 14:27:36;;;;;;;143.20;51.30;;;;;;;3.03;100.00;100215.72;10731664;82;21100;-84
2020/12/13 14:42:41;;;;;;;267.57;87.12;;;;;;;3.01;100.00;100222.29;10588698;82;21039;-83
2020/12/13 14:57:46;;;;;;;138.37;59.27;;;;;;;2.95;100.00;100233.82;10777453;80;21083;-83
2020/12/13 15:12:51;;;;;;;170.72;53.78;;;;;;;2.91;100.00;100243.17;10951919;80;21068;-84
2020/12/13 15:27:56;;;;;;;168.28;63.90;;;;;;;2.98;100.00;100250.95;10938932;80;21025;-84
2020/12/13 15:43:00;;;;;;;206.75;70.00;;;;;;;2.96;100.00;100263.19;10952829;80;21040;-84
2020/12/13 15:58:05;;;;;;;173.93;66.40;;;;;;;2.92;100.00;100269.47;10927584;79;21080;-84
2020/12/13 16:13:09;;;;;;;185.35;70.42;;;;;;;2.88;100.00;100268.79;10885455;80;21103;-84
2020/12/13 16:28:14;;;;;;;149.77;56.68;;;;;;;2.86;100.00;100289.23;10873470;80;21012;-84
2020/12/13 16:43:30;;;;;;;384.25;154.97;;;;;;;2.89;100.00;100308.05;10885743;79;21125;-84
2020/12/13 16:58:35;;;;;;;173.17;67.95;;;;;;;2.83;100.00;100315.67;10919865;80;21135;-84
2020/12/13 17:13:42;;;;;;;513.48;188.57;;;;;;;2.83;100.00;100327.81;10987576;79;21080;-85
2020/12/13 17:28:46;;;;;;;225.03;113.47;;;;;;;2.91;100.00;100342.47;10961099;80;21159;-84
2020/12/13 17:43:58;;;;;;;112.37;44.50;;;;;;;2.91;100.00;100342.47;10966624;79;21190;-83
2020/12/13 17:59:07;;;;;;;115.97;42.23;;;;;;;2.96;100.00;100343.52;10961011;80;21171;-84
2020/12/13 18:14:12;;;;;;;218.33;81.25;;;;;;;2.97;100.00;100356.86;10899423;80;21314;-85
2020/12/13 18:29:19;;;;;;;96.80;40.38;;;;;;;2.75;100.00;100359.31;10882099;81;21025;-88
2020/12/13 18:44:23;;;;;;;92.90;35.47;;;;;;;2.75;100.00;100356.72;10883069;80;21045;-89
2020/12/13 18:59:27;;;;;;;119.65;44.38;;;;;;;2.73;100.00;100355.13;10906905;80;21115;-88
2020/12/13 19:14:32;;;;;;;80.53;30.57;;;;;;;2.74;100.00;100364.59;10559943;82;21154;-88
2020/12/13 19:29:38;;;;;;;976.90;404.63;;;;;;;2.77;100.00;100373.03;10624860;82;21134;-88
2020/12/13 19:44:43;;;;;;;139.35;57.38;;;;;;;2.76;100.00;100392.08;10658099;82;21086;-87
2020/12/13 19:59:53;;;;;;;167.10;69.40;;;;;;;2.75;100.00;100387.81;10657193;82;21083;-87
2020/12/13 20:15:22;;;;;;;195.28;80.80;;;;;;;2.78;100.00;100394.59;10893568;80;20973;-87
2020/12/13 21:32:24;;;;;;;94.42;33.70;;;;;;;2.60;100.00;100454.67;10670989;81;21072;-91
2020/12/13 21:47:24;;;;;;;97.95;36.93;;;;;;;2.60;100.00;100455.97;10879864;81;20969;-85
2020/12/13 22:33:31;;;;;;;72.50;28.10;;;;;;;2.48;100.00;100470.39;10290135;82;21463;-87
2020/12/13 22:48:37;;;;;;;78.47;33.95;;;;;;;2.56;100.00;100479.06;10516092;83;21430;-88
2020/12/13 23:03:42;;;;;;;76.17;26.65;;;;;;;2.46;100.00;100479.54;10523296;83;21020;-91
2020/12/13 23:18:46;;;;;;;76.17;29.50;;;;;;;2.44;100.00;100481.39;10919178;79;21414;-89
2020/12/13 23:33:54;;;;;;;74.55;29.65;;;;;;;2.42;100.00;100475.44;10908519;79;21739;-91
2020/12/13 23:48:58;;;;;;;82.02;32.17;;;;;;;2.36;100.00;100488.69;10882329;81;21132;-93
